Time;durP1;ratioP1;P1;durP2;ratioP2;P2;SDS_P1;SDS_P2;PMS_P1;PMS_P2;Temp;Humidity;BMP_temperature;BMP_pressure;BME280_temperature;BME280_humidity;BME280_pressure;Samples;Min_cycle;Max_cycle;Signal;HPM_P1;HPM_P2
2021/09/16 00:01:42;;;;;;;;;;;16.00;99.90;;;;;;5002884;28;19963;-68
2021/09/16 00:04:07;;;;;;;;;;;16.10;99.90;;;;;;4988645;28;20350;-68
2021/09/16 00:06:33;;;;;;;;;;;16.00;99.90;;;;;;5006539;28;19913;-68
2021/09/16 00:08:58;;;;;;;;;;;15.40;99.90;;;;;;5002358;28;19964;-69
2021/09/16 00:11:24;;;;;;;;;;;16.00;99.90;;;;;;4999677;28;20372;-68
2021/09/16 00:13:50;;;;;;;;;;;15.80;99.90;;;;;;4988776;28;19905;-69
2021/09/16 00:16:15;;;;;;;;;;;15.90;99.90;;;;;;4995620;28;19906;-69
2021/09/16 00:18:41;;;;;;;;;;;15.80;99.90;;;;;;4997703;28;19913;-69
2021/09/16 00:21:07;;;;;;;;;;;15.80;99.90;;;;;;5000197;28;19910;-69
2021/09/16 00:23:32;;;;;;;;;;;15.80;99.90;;;;;;4987971;28;19906;-69
2021/09/16 00:25:58;;;;;;;;;;;15.70;99.90;;;;;;4996343;28;19913;-68
2021/09/16 00:28:23;;;;;;;;;;;15.70;99.90;;;;;;4993600;28;19964;-68
2021/09/16 00:30:49;;;;;;;;;;;15.70;99.90;;;;;;4993456;28;19968;-68
2021/09/16 00:33:14;;;;;;;;;;;15.70;99.90;;;;;;4994004;28;19964;-69
2021/09/16 00:35:40;;;;;;;;;;;15.70;99.90;;;;;;4979554;28;20512;-69
2021/09/16 00:38:05;;;;;;;;;;;15.60;99.90;;;;;;5000286;28;20015;-69
2021/09/16 00:40:31;;;;;;;;;;;15.60;99.90;;;;;;4998090;28;19913;-69
2021/09/16 00:42:56;;;;;;;;;;;15.60;99.90;;;;;;4996402;28;19906;-69
2021/09/16 00:45:22;;;;;;;;;;;15.60;99.90;;;;;;4987744;28;19910;-69
2021/09/16 00:47:49;;;;;;;;;;;15.60;99.90;;;;;;5002627;28;19917;-69
2021/09/16 00:50:15;;;;;;;;;;;15.50;99.90;;;;;;5003437;28;20158;-69
2021/09/16 00:52:41;;;;;;;;;;;15.50;99.90;;;;;;4988672;28;19949;-69
2021/09/16 00:55:08;;;;;;;;;;;15.60;99.90;;;;;;5005322;28;19910;-69
2021/09/16 00:57:33;;;;;;;;;;;15.50;99.90;;;;;;4986758;28;19905;-69
2021/09/16 01:00:00;;;;;;;;;;;15.50;99.90;;;;;;4993952;28;19913;-69
2021/09/16 01:02:26;;;;;;;;;;;15.40;99.90;;;;;;5003298;28;19917;-69
2021/09/16 01:04:51;;;;;;;;;;;15.40;99.90;;;;;;4989872;28;19912;-69
2021/09/16 01:07:17;;;;;;;;;;;15.30;99.90;;;;;;5005033;28;19910;-69
2021/09/16 01:09:43;;;;;;;;;;;15.30;99.90;;;;;;4997302;28;19906;-69
2021/09/16 01:12:08;;;;;;;;;;;15.30;99.90;;;;;;4995692;28;20053;-70
2021/09/16 01:14:34;;;;;;;;;;;15.30;99.90;;;;;;5004601;28;20354;-69
2021/09/16 01:17:00;;;;;;;;;;;15.30;99.90;;;;;;4981274;28;19988;-69
2021/09/16 01:19:26;;;;;;;;;;;15.30;99.90;;;;;;4997522;28;19929;-69
2021/09/16 01:21:51;;;;;;;;;;;15.20;99.90;;;;;;5003210;28;19913;-69
2021/09/16 01:24:17;;;;;;;;;;;15.10;99.90;;;;;;5000980;28;19952;-69
2021/09/16 01:26:43;;;;;;;;;;;15.10;99.90;;;;;;4998601;28;19949;-69
2021/09/16 01:29:08;;;;;;;;;;;15.00;99.90;;;;;;4990438;28;19914;-69
2021/09/16 01:31:34;;;;;;;;;;;15.00;99.90;;;;;;5003013;28;20573;-69
2021/09/16 01:34:03;;;;;;;;;;;15.00;99.90;;;;;;5007831;28;19910;-69
2021/09/16 01:36:29;;;;;;;;;;;15.00;99.90;;;;;;5001676;28;19920;-69
2021/09/16 01:38:54;;;;;;;;;;;14.90;99.90;;;;;;4996392;28;19906;-69
2021/09/16 01:41:20;;;;;;;;;;;14.80;99.90;;;;;;5003311;28;19913;-69
2021/09/16 01:43:45;;;;;;;;;;;14.70;99.90;;;;;;4998168;28;20273;-69
2021/09/16 01:46:11;;;;;;;;;;;14.80;99.90;;;;;;4995187;28;19957;-69
2021/09/16 01:48:36;;;;;;;;;;;14.90;99.90;;;;;;4987001;28;19906;-69
2021/09/16 01:51:02;;;;;;;;;;;14.80;99.90;;;;;;5004770;28;19905;-69
2021/09/16 01:53:27;;;;;;;;;;;15.00;99.90;;;;;;4992115;28;20553;-69
2021/09/16 01:55:53;;;;;;;;;;;15.00;99.90;;;;;;4992550;28;19912;-69
2021/09/16 01:58:18;;;;;;;;;;;15.00;99.90;;;;;;4999236;28;19910;-69
2021/09/16 02:00:44;;;;;;;;;;;14.90;99.90;;;;;;4985661;28;19913;-69
2021/09/16 02:03:09;;;;;;;;;;;14.80;99.90;;;;;;4995564;28;19913;-69
2021/09/16 02:05:35;;;;;;;;;;;14.60;99.90;;;;;;4999033;28;19909;-69
2021/09/16 02:08:00;;;;;;;;;;;14.60;99.90;;;;;;4991362;28;19905;-69
2021/09/16 02:10:26;;;;;;;;;;;14.50;99.90;;;;;;5004593;28;19913;-69
2021/09/16 02:12:51;;;;;;;;;;;14.40;99.90;;;;;;4986036;28;19905;-69
2021/09/16 02:15:17;;;;;;;;;;;14.40;99.90;;;;;;4999831;28;19970;-69
2021/09/16 02:17:42;;;;;;;;;;;14.50;99.90;;;;;;4995095;28;19945;-69
2021/09/16 02:20:08;;;;;;;;;;;14.60;99.90;;;;;;5003148;28;19909;-69
2021/09/16 02:22:33;;;;;;;;;;;14.70;99.90;;;;;;4993574;28;19922;-69
2021/09/16 02:24:59;;;;;;;;;;;14.70;99.90;;;;;;4998982;28;20314;-69
2021/09/16 02:27:25;;;;;;;;;;;14.90;99.90;;;;;;5007367;28;20411;-69
2021/09/16 02:29:50;;;;;;;;;;;14.70;99.90;;;;;;4979898;28;19917;-69
2021/09/16 02:32:16;;;;;;;;;;;14.90;99.90;;;;;;5002645;28;19988;-69
2021/09/16 02:34:41;;;;;;;;;;;14.80;99.90;;;;;;4992233;28;19906;-69
2021/09/16 02:37:07;;;;;;;;;;;14.80;99.90;;;;;;4983205;28;19906;-69
2021/09/16 02:39:33;;;;;;;;;;;14.60;99.90;;;;;;4991542;28;19945;-69
2021/09/16 02:41:59;;;;;;;;;;;14.70;99.90;;;;;;5007453;28;19948;-69
2021/09/16 02:44:24;;;;;;;;;;;14.70;99.90;;;;;;4998812;28;20233;-69
2021/09/16 02:46:49;;;;;;;;;;;14.80;99.90;;;;;;4999896;28;20401;-69
2021/09/16 02:49:15;;;;;;;;;;;14.80;99.90;;;;;;4986829;28;19905;-69
2021/09/16 02:51:40;;;;;;;;;;;14.70;99.90;;;;;;5009195;28;19906;-69
2021/09/16 02:54:06;;;;;;;;;;;14.60;99.90;;;;;;5004138;28;19909;-69
2021/09/16 02:56:32;;;;;;;;;;;14.70;99.90;;;;;;5005785;28;19909;-69
2021/09/16 02:58:57;;;;;;;;;;;14.70;99.90;;;;;;4994078;28;19921;-69
2021/09/16 03:01:23;;;;;;;;;;;14.50;99.90;;;;;;4998114;28;19921;-69
2021/09/16 03:03:49;;;;;;;;;;;14.50;99.90;;;;;;4995893;28;20370;-69
2021/09/16 03:06:14;;;;;;;;;;;14.60;99.90;;;;;;5002565;28;19996;-69
2021/09/16 03:08:39;;;;;;;;;;;14.60;99.90;;;;;;4999601;28;19913;-69
2021/09/16 03:11:05;;;;;;;;;;;14.50;99.90;;;;;;5008829;28;19952;-68
2021/09/16 03:13:30;;;;;;;;;;;14.60;99.90;;;;;;4997516;28;19941;-68
2021/09/16 03:15:56;;;;;;;;;;;14.60;99.90;;;;;;5004957;28;20288;-68
2021/09/16 03:18:21;;;;;;;;;;;14.60;99.90;;;;;;5004899;28;20276;-68
2021/09/16 03:20:47;;;;;;;;;;;14.70;99.90;;;;;;4997635;28;19917;-69
2021/09/16 03:23:12;;;;;;;;;;;14.70;99.90;;;;;;5006282;28;19959;-69
2021/09/16 03:25:38;;;;;;;;;;;14.80;99.90;;;;;;4991762;28;19953;-69
2021/09/16 03:28:03;;;;;;;;;;;14.80;99.90;;;;;;5003655;28;19905;-69
2021/09/16 03:30:29;;;;;;;;;;;14.80;99.90;;;;;;4992115;28;19963;-69
2021/09/16 03:32:56;;;;;;;;;;;14.60;99.90;;;;;;4979204;28;19928;-69
2021/09/16 03:35:22;;;;;;;;;;;14.60;99.90;;;;;;4998693;28;19988;-69
2021/09/16 03:37:47;;;;;;;;;;;14.60;99.90;;;;;;4995926;28;20333;-68
2021/09/16 03:40:13;;;;;;;;;;;14.60;99.90;;;;;;4977477;28;19909;-68
2021/09/16 03:42:38;;;;;;;;;;;14.70;99.90;;;;;;4998982;28;19972;-68
2021/09/16 03:45:04;;;;;;;;;;;14.60;99.90;;;;;;5000671;28;20362;-69
2021/09/16 03:47:30;;;;;;;;;;;14.60;99.90;;;;;;4995724;28;19909;-69
2021/09/16 03:49:55;;;;;;;;;;;14.70;99.90;;;;;;4997027;28;19913;-69
2021/09/16 03:52:21;;;;;;;;;;;14.70;99.90;;;;;;4995895;28;19906;-68
2021/09/16 03:54:47;;;;;;;;;;;14.60;99.90;;;;;;5001321;28;19917;-69
2021/09/16 03:57:12;;;;;;;;;;;14.40;99.90;;;;;;5006204;28;19918;-69
2021/09/16 03:59:38;;;;;;;;;;;14.30;99.90;;;;;;5004760;28;19914;-69
2021/09/16 04:02:04;;;;;;;;;;;14.20;99.90;;;;;;4997222;28;19940;-69
2021/09/16 04:04:29;;;;;;;;;;;14.10;99.90;;;;;;5007239;28;19996;-69
2021/09/16 04:06:55;;;;;;;;;;;14.10;99.90;;;;;;5007618;28;19966;-69
2021/09/16 04:09:21;;;;;;;;;;;14.00;99.90;;;;;;4980453;28;19906;-68
2021/09/16 04:11:47;;;;;;;;;;;14.00;99.90;;;;;;5008410;28;20284;-68
2021/09/16 04:14:12;;;;;;;;;;;14.00;99.90;;;;;;5004829;28;19905;-68
2021/09/16 04:16:38;;;;;;;;;;;14.00;99.90;;;;;;4988568;28;19924;-69
2021/09/16 04:19:03;;;;;;;;;;;13.90;99.90;;;;;;5003922;28;20397;-69
2021/09/16 04:21:29;;;;;;;;;;;13.90;99.90;;;;;;4988027;28;19966;-69
2021/09/16 04:23:54;;;;;;;;;;;13.90;99.90;;;;;;5007819;28;19905;-69
2021/09/16 04:26:20;;;;;;;;;;;14.00;99.90;;;;;;4996387;28;19916;-68
2021/09/16 04:28:45;;;;;;;;;;;14.00;99.90;;;;;;4984286;28;19917;-68
2021/09/16 04:31:10;;;;;;;;;;;14.00;99.90;;;;;;5005121;28;19944;-69
2021/09/16 04:33:36;;;;;;;;;;;14.10;99.90;;;;;;4985969;28;19956;-69
2021/09/16 04:36:02;;;;;;;;;;;14.00;99.90;;;;;;5006509;28;19913;-69
2021/09/16 04:38:27;;;;;;;;;;;14.10;99.90;;;;;;5003207;28;19988;-69
2021/09/16 04:40:53;;;;;;;;;;;14.20;99.90;;;;;;4996590;28;19939;-68
2021/09/16 04:43:18;;;;;;;;;;;14.10;99.90;;;;;;5005415;28;20280;-69
2021/09/16 04:45:44;;;;;;;;;;;14.10;99.90;;;;;;4989547;28;19993;-69
2021/09/16 04:48:09;;;;;;;;;;;14.10;99.90;;;;;;4983205;28;19909;-69
2021/09/16 04:50:35;;;;;;;;;;;14.60;99.90;;;;;;4989904;28;19906;-69
2021/09/16 04:53:00;;;;;;;;;;;14.00;99.90;;;;;;4977562;28;20642;-69
2021/09/16 04:55:26;;;;;;;;;;;13.90;99.90;;;;;;5004647;28;19905;-69
2021/09/16 04:57:51;;;;;;;;;;;13.90;99.90;;;;;;5003911;28;19913;-69
2021/09/16 05:00:17;;;;;;;;;;;13.90;99.90;;;;;;4989344;28;19932;-69
2021/09/16 05:02:42;;;;;;;;;;;14.00;99.90;;;;;;4995152;28;19921;-69
2021/09/16 05:05:09;;;;;;;;;;;14.00;99.90;;;;;;5008252;28;19909;-69
2021/09/16 05:07:34;;;;;;;;;;;14.00;99.90;;;;;;4994118;28;19951;-68
2021/09/16 05:09:59;;;;;;;;;;;14.10;99.90;;;;;;4999105;28;19948;-69
2021/09/16 05:12:25;;;;;;;;;;;14.10;99.90;;;;;;5001053;28;19976;-69
2021/09/16 05:14:50;;;;;;;;;;;14.00;99.90;;;;;;4996132;28;19913;-69
2021/09/16 05:17:16;;;;;;;;;;;14.00;99.90;;;;;;4995854;28;19917;-69
2021/09/16 05:19:41;;;;;;;;;;;14.00;99.90;;;;;;5008157;28;20369;-69
2021/09/16 05:22:07;;;;;;;;;;;13.90;99.90;;;;;;5008480;28;19978;-69
2021/09/16 05:24:32;;;;;;;;;;;13.70;99.90;;;;;;5001799;28;19914;-69
2021/09/16 05:26:58;;;;;;;;;;;13.60;99.90;;;;;;5004638;28;20562;-69
2021/09/16 05:29:24;;;;;;;;;;;13.60;99.90;;;;;;4997602;28;20289;-68
2021/09/16 05:31:49;;;;;;;;;;;13.50;99.90;;;;;;4980603;28;19918;-69
2021/09/16 05:34:15;;;;;;;;;;;13.40;99.90;;;;;;4986744;28;19953;-69
2021/09/16 05:36:40;;;;;;;;;;;13.30;99.90;;;;;;4982867;28;19910;-69
2021/09/16 05:39:06;;;;;;;;;;;13.30;99.90;;;;;;4983676;28;19906;-69
2021/09/16 05:41:31;;;;;;;;;;;13.40;99.90;;;;;;4984058;28;19921;-69
2021/09/16 05:43:57;;;;;;;;;;;13.40;99.90;;;;;;4984436;28;20424;-69
2021/09/16 05:46:22;;;;;;;;;;;13.40;99.90;;;;;;4987677;28;19937;-69
2021/09/16 05:48:48;;;;;;;;;;;13.40;99.90;;;;;;4986875;28;19953;-69
2021/09/16 05:51:14;;;;;;;;;;;13.40;99.90;;;;;;4983287;28;19912;-69
2021/09/16 05:53:40;;;;;;;;;;;13.60;99.90;;;;;;4985541;28;19910;-69
2021/09/16 05:56:05;;;;;;;;;;;13.70;99.90;;;;;;4977885;28;19906;-69
2021/09/16 05:58:30;;;;;;;;;;;13.80;99.90;;;;;;4977154;28;19907;-69
2021/09/16 06:00:56;;;;;;;;;;;14.00;99.90;;;;;;4999944;28;19917;-69
2021/09/16 06:03:21;;;;;;;;;;;14.10;99.90;;;;;;4984678;28;20012;-68
2021/09/16 06:05:47;;;;;;;;;;;14.30;99.90;;;;;;4983953;28;19906;-69
2021/09/16 06:08:13;;;;;;;;;;;14.40;99.90;;;;;;4987146;28;19996;-69
2021/09/16 06:10:38;;;;;;;;;;;14.30;99.90;;;;;;4985588;28;19921;-69
2021/09/16 06:13:04;;;;;;;;;;;14.40;99.90;;;;;;4987890;28;19910;-69
2021/09/16 06:15:29;;;;;;;;;;;14.50;99.90;;;;;;4987902;28;20360;-69
2021/09/16 06:17:55;;;;;;;;;;;14.50;99.90;;;;;;4989479;28;19909;-69
2021/09/16 06:20:20;;;;;;;;;;;14.60;99.90;;;;;;4986041;28;19987;-68
2021/09/16 06:22:46;;;;;;;;;;;14.70;99.90;;;;;;4981379;28;19910;-68
2021/09/16 06:25:14;;;;;;;;;;;14.60;99.90;;;;;;4985588;28;19909;-68
2021/09/16 06:27:39;;;;;;;;;;;14.70;99.90;;;;;;4987787;28;19941;-68
2021/09/16 06:30:05;;;;;;;;;;;14.80;99.90;;;;;;4985969;28;20324;-69
2021/09/16 06:32:33;;;;;;;;;;;14.90;99.90;;;;;;4997979;28;19925;-68
2021/09/16 06:34:58;;;;;;;;;;;14.80;99.90;;;;;;4995507;28;19979;-68
2021/09/16 06:37:24;;;;;;;;;;;14.80;99.90;;;;;;5000187;28;19909;-68
2021/09/16 06:39:49;;;;;;;;;;;14.80;99.90;;;;;;4998989;28;20393;-69
2021/09/16 06:42:15;;;;;;;;;;;14.90;99.90;;;;;;4988005;28;19913;-69
2021/09/16 06:44:40;;;;;;;;;;;15.00;99.90;;;;;;5002276;28;19906;-69
2021/09/16 06:47:06;;;;;;;;;;;15.10;99.90;;;;;;4986832;28;20000;-69
2021/09/16 06:49:36;;;;;;;;;;;15.10;99.90;;;;;;4994295;28;19913;-68
2021/09/16 06:52:02;;;;;;;;;;;15.00;99.90;;;;;;5011421;28;19910;-68
2021/09/16 06:54:27;;;;;;;;;;;15.00;99.90;;;;;;5000979;28;19906;-68
2021/09/16 06:56:53;;;;;;;;;;;14.80;99.90;;;;;;4999156;28;19916;-68
2021/09/16 06:59:18;;;;;;;;;;;14.80;99.90;;;;;;4999785;28;19963;-69
2021/09/16 07:01:44;;;;;;;;;;;14.70;99.90;;;;;;5000245;28;20292;-69
2021/09/16 07:04:09;;;;;;;;;;;14.80;99.90;;;;;;4993212;28;19953;-69
2021/09/16 07:06:35;;;;;;;;;;;14.80;99.90;;;;;;4995763;28;19912;-69
2021/09/16 07:09:00;;;;;;;;;;;14.90;99.90;;;;;;4993816;28;19906;-69
2021/09/16 07:11:26;;;;;;;;;;;14.80;99.90;;;;;;4994852;28;20404;-69
2021/09/16 07:13:51;;;;;;;;;;;14.90;99.90;;;;;;4999213;28;19930;-69
2021/09/16 07:16:17;;;;;;;;;;;14.90;99.90;;;;;;4992813;28;19906;-69
2021/09/16 07:18:42;;;;;;;;;;;15.10;99.90;;;;;;4996283;28;20440;-69
2021/09/16 07:21:08;;;;;;;;;;;15.00;99.90;;;;;;4980268;28;19913;-69
2021/09/16 07:23:33;;;;;;;;;;;15.10;99.90;;;;;;4990344;28;20341;-69
2021/09/16 07:25:59;;;;;;;;;;;15.20;99.90;;;;;;4992285;28;20254;-69
2021/09/16 07:28:24;;;;;;;;;;;15.10;99.90;;;;;;4997620;28;19957;-69
2021/09/16 07:30:50;;;;;;;;;;;15.10;99.90;;;;;;4988842;28;20036;-69
2021/09/16 07:33:16;;;;;;;;;;;15.10;99.90;;;;;;4996936;28;20391;-69
2021/09/16 07:35:41;;;;;;;;;;;15.00;99.90;;;;;;4996645;28;20004;-69
2021/09/16 07:38:07;;;;;;;;;;;15.10;99.90;;;;;;4996965;28;19912;-69
2021/09/16 07:40:33;;;;;;;;;;;15.20;99.90;;;;;;4993368;28;20394;-69
2021/09/16 07:42:58;;;;;;;;;;;14.40;99.90;;;;;;4997856;28;20000;-69
2021/09/16 07:45:23;;;;;;;;;;;15.10;99.90;;;;;;4975472;28;19912;-69
2021/09/16 07:47:49;;;;;;;;;;;15.10;99.90;;;;;;5003062;28;19906;-69
2021/09/16 07:50:15;;;;;;;;;;;15.10;99.90;;;;;;4998455;28;20365;-69
2021/09/16 07:52:40;;;;;;;;;;;15.20;99.90;;;;;;5003528;28;19912;-69
2021/09/16 07:55:06;;;;;;;;;;;15.20;99.90;;;;;;5008302;28;19975;-69
2021/09/16 07:57:31;;;;;;;;;;;15.20;99.90;;;;;;4990342;28;20328;-69
2021/09/16 07:59:57;;;;;;;;;;;15.30;99.90;;;;;;5002920;28;19916;-69
2021/09/16 08:02:22;;;;;;;;;;;15.30;99.90;;;;;;4994596;28;19968;-69
2021/09/16 08:04:48;;;;;;;;;;;15.30;99.90;;;;;;4980951;28;19967;-69
2021/09/16 08:07:13;;;;;;;;;;;15.30;99.90;;;;;;4999021;28;19916;-69
2021/09/16 08:09:39;;;;;;;;;;;15.10;99.90;;;;;;4990464;28;19932;-69
2021/09/16 08:12:04;;;;;;;;;;;15.10;99.90;;;;;;4998357;28;19913;-69
2021/09/16 08:14:31;;;;;;;;;;;15.00;99.90;;;;;;4990230;28;20369;-69
2021/09/16 08:16:57;;;;;;;;;;;15.00;99.90;;;;;;4990884;28;19937;-69
2021/09/16 08:19:23;;;;;;;;;;;15.00;99.90;;;;;;4987995;28;19906;-69
2021/09/16 08:21:48;;;;;;;;;;;15.00;99.90;;;;;;4989174;28;19920;-69
2021/09/16 08:24:14;;;;;;;;;;;15.10;99.90;;;;;;5007602;28;19905;-69
2021/09/16 08:26:39;;;;;;;;;;;15.10;99.90;;;;;;4976826;28;19910;-69
2021/09/16 08:29:05;;;;;;;;;;;15.00;99.90;;;;;;5004591;28;19916;-69
2021/09/16 08:31:31;;;;;;;;;;;15.00;99.90;;;;;;4983001;28;20376;-69
2021/09/16 08:33:56;;;;;;;;;;;15.00;99.90;;;;;;4979909;28;20326;-69
2021/09/16 08:36:22;;;;;;;;;;;15.00;99.90;;;;;;4972644;28;20326;-69
2021/09/16 08:38:48;;;;;;;;;;;15.00;99.90;;;;;;4976676;28;19912;-68
2021/09/16 08:41:13;;;;;;;;;;;15.00;99.90;;;;;;4989669;28;19909;-69
2021/09/16 08:43:39;;;;;;;;;;;15.20;99.90;;;;;;4981203;28;19906;-69
2021/09/16 08:46:05;;;;;;;;;;;15.30;99.90;;;;;;4970993;28;19913;-69
2021/09/16 08:48:31;;;;;;;;;;;15.30;99.90;;;;;;4971276;28;20357;-69
2021/09/16 08:50:56;;;;;;;;;;;15.30;99.90;;;;;;4979819;28;19910;-69
2021/09/16 08:53:26;;;;;;;;;;;15.30;99.90;;;;;;4969862;28;19907;-69
2021/09/16 08:55:52;;;;;;;;;;;15.40;99.90;;;;;;4976054;28;19940;-69
2021/09/16 08:58:24;;;;;;;;;;;15.60;99.90;;;;;;4978455;28;19945;-69
2021/09/16 09:00:50;;;;;;;;;;;15.70;99.90;;;;;;4973995;28;19921;-69
2021/09/16 09:03:16;;;;;;;;;;;15.90;99.90;;;;;;4987388;28;19909;-70
2021/09/16 09:05:42;;;;;;;;;;;16.00;99.90;;;;;;4975416;28;19917;-69
2021/09/16 09:08:07;;;;;;;;;;;16.30;99.90;;;;;;4983646;28;19918;-69
2021/09/16 09:10:33;;;;;;;;;;;16.40;99.90;;;;;;4978779;28;19905;-69
2021/09/16 09:12:58;;;;;;;;;;;16.50;99.90;;;;;;4973722;28;19945;-69
2021/09/16 09:15:24;;;;;;;;;;;;;;;;;;4985286;28;19916;-69
2021/09/16 09:18:04;;;;;;;;;;;17.00;99.90;;;;;;4977083;28;19946;-69
2021/09/16 09:20:29;;;;;;;;;;;17.20;99.90;;;;;;4976776;28;19917;-69
2021/09/16 09:22:55;;;;;;;;;;;17.10;99.90;;;;;;4980501;28;19906;-69
2021/09/16 09:25:20;;;;;;;;;;;17.30;99.90;;;;;;4979216;28;19912;-69
2021/09/16 09:27:50;;;;;;;;;;;17.50;99.90;;;;;;4977651;28;20341;-69
2021/09/16 09:30:17;;;;;;;;;;;17.40;99.90;;;;;;4982776;28;19918;-69
2021/09/16 09:32:50;;;;;;;;;;;17.30;99.90;;;;;;4992334;28;19980;-69
2021/09/16 09:35:26;;;;;;;;;;;17.00;99.90;;;;;;4985901;28;19969;-69
2021/09/16 09:37:51;;;;;;;;;;;17.10;99.90;;;;;;5013743;28;19996;-69
2021/09/16 09:40:24;;;;;;;;;;;17.10;99.90;;;;;;4998821;28;20004;-69
2021/09/16 09:42:49;;;;;;;;;;;17.20;99.90;;;;;;4990877;28;20003;-69
2021/09/16 09:45:15;;;;;;;;;;;17.30;99.90;;;;;;4990168;28;19945;-69
2021/09/16 09:47:44;;;;;;;;;;;17.30;99.90;;;;;;4994888;28;19913;-69
2021/09/16 09:50:21;;;;;;;;;;;17.30;99.90;;;;;;5001925;28;19960;-69
2021/09/16 09:52:48;;;;;;;;;;;17.30;99.90;;;;;;4993529;28;20272;-69
2021/09/16 09:55:14;;;;;;;;;;;17.40;99.90;;;;;;5000512;28;19969;-69
2021/09/16 09:57:40;;;;;;;;;;;17.70;99.90;;;;;;4992218;28;19945;-69
2021/09/16 10:00:10;;;;;;;;;;;18.10;99.90;;;;;;4999058;28;19941;-69
2021/09/16 10:02:38;;;;;;;;;;;18.30;99.90;;;;;;4984165;28;19921;-69
2021/09/16 10:05:17;;;;;;;;;;;18.20;99.90;;;;;;4986227;28;19912;-69
2021/09/16 10:07:43;;;;;;;;;;;17.60;99.90;;;;;;4999313;28;19993;-69
2021/09/16 10:10:10;;;;;;;;;;;17.80;99.90;;;;;;4994289;28;19910;-69
2021/09/16 10:12:36;;;;;;;;;;;17.80;99.90;;;;;;4996048;28;20269;-69
2021/09/16 10:15:02;;;;;;;;;;;17.90;99.90;;;;;;4992275;28;19910;-69
2021/09/16 10:17:28;;;;;;;;;;;17.60;99.90;;;;;;4998233;28;19988;-69
2021/09/16 10:19:53;;;;;;;;;;;17.90;99.90;;;;;;5004139;28;19981;-69
2021/09/16 10:22:19;;;;;;;;;;;17.60;99.90;;;;;;4991582;28;20357;-69
2021/09/16 10:24:45;;;;;;;;;;;17.60;99.90;;;;;;5006688;28;19964;-69
2021/09/16 10:27:30;;;;;;;;;;;17.40;99.90;;;;;;5013468;28;19915;-69
2021/09/16 10:29:55;;;;;;;;;;;17.40;99.90;;;;;;4998953;28;20254;-69
2021/09/16 10:32:21;;;;;;;;;;;17.50;99.90;;;;;;5011267;28;19927;-69
2021/09/16 10:34:48;;;;;;;;;;;17.50;99.90;;;;;;5001240;28;20003;-69
2021/09/16 10:37:15;;;;;;;;;;;17.60;99.90;;;;;;5002069;28;19905;-69
2021/09/16 10:39:41;;;;;;;;;;;18.00;99.90;;;;;;4996562;28;19905;-69
2021/09/16 10:42:07;;;;;;;;;;;18.60;99.90;;;;;;5002329;28;19909;-69
2021/09/16 10:44:34;;;;;;;;;;;18.60;99.90;;;;;;4990152;28;19932;-69
2021/09/16 10:47:14;;;;;;;;;;;18.80;99.90;;;;;;4998046;28;20021;-69
2021/09/16 10:49:39;;;;;;;;;;;18.90;99.90;;;;;;4990458;28;20436;-69
2021/09/16 10:52:10;;;;;;;;;;;19.30;99.90;;;;;;4992104;28;19940;-69
2021/09/16 10:54:40;;;;;;;;;;;19.50;99.90;;;;;;4994901;28;19906;-69
2021/09/16 10:57:13;;;;;;;;;;;19.50;99.90;;;;;;4978253;28;19912;-69
2021/09/16 10:59:51;;;;;;;;;;;19.70;99.90;;;;;;4975261;28;19914;-69
2021/09/16 11:02:17;;;;;;;;;;;20.10;99.90;;;;;;4998686;28;19963;-69
2021/09/16 11:05:05;;;;;;;;;;;20.20;99.90;;;;;;4997228;28;20408;-69
2021/09/16 11:07:34;;;;;;;;;;;19.90;99.90;;;;;;4995585;28;20346;-69
2021/09/16 11:10:15;;;;;;;;;;;20.10;99.90;;;;;;4990592;28;19917;-69
2021/09/16 11:12:41;;;;;;;;;;;19.70;99.90;;;;;;4993330;28;19917;-69
2021/09/16 11:15:10;;;;;;;;;;;19.20;99.90;;;;;;4980084;28;19910;-69
2021/09/16 11:17:36;;;;;;;;;;;19.70;99.90;;;;;;4992578;28;19913;-69
2021/09/16 11:20:01;;;;;;;;;;;21.40;99.90;;;;;;4996668;28;19909;-70
2021/09/16 11:22:27;;;;;;;;;;;22.00;99.90;;;;;;4999924;28;19910;-69
2021/09/16 11:24:55;;;;;;;;;;;22.10;99.90;;;;;;5006151;28;19960;-69
2021/09/16 11:27:25;;;;;;;;;;;21.70;99.90;;;;;;4992212;28;20397;-69
2021/09/16 11:29:52;;;;;;;;;;;;;;;;;;4982725;28;19984;-69
2021/09/16 11:32:18;;;;;;;;;;;;;;;;;;4999435;28;20328;-69
2021/09/16 11:34:51;;;;;;;;;;;23.20;99.90;;;;;;4993526;28;19910;-69
2021/09/16 11:37:18;;;;;;;;;;;23.70;99.90;;;;;;4999308;28;19996;-69
2021/09/16 11:39:54;;;;;;;;;;;24.90;99.90;;;;;;4991320;28;20549;-69
2021/09/16 11:42:22;;;;;;;;;;;24.90;99.90;;;;;;5002700;28;19979;-69
2021/09/16 11:44:55;;;;;;;;;;;24.80;99.90;;;;;;4996010;28;19989;-69
2021/09/16 11:47:21;;;;;;;;;;;;;;;;;;4996582;28;19911;-69
2021/09/16 11:49:46;;;;;;;;;;;21.40;99.90;;;;;;4999142;28;19982;-69
2021/09/16 11:52:17;;;;;;;;;;;20.80;99.90;;;;;;4995871;28;19909;-69
2021/09/16 11:55:00;;;;;;;;;;;20.00;99.90;;;;;;4992905;28;19906;-69
2021/09/16 11:57:25;;;;;;;;;;;19.90;99.90;;;;;;4994394;28;19910;-69
2021/09/16 11:59:51;;;;;;;;;;;20.00;99.90;;;;;;4995857;28;20005;-69
2021/09/16 12:02:16;;;;;;;;;;;20.00;99.90;;;;;;5000077;28;19918;-69
2021/09/16 12:04:42;;;;;;;;;;;19.80;99.90;;;;;;5005973;28;20372;-69
2021/09/16 12:07:08;;;;;;;;;;;19.70;99.90;;;;;;5011947;28;19905;-69
2021/09/16 12:09:33;;;;;;;;;;;19.80;99.90;;;;;;4990473;28;19909;-69
2021/09/16 12:11:59;;;;;;;;;;;19.60;99.90;;;;;;4993961;28;19910;-69
2021/09/16 12:14:25;;;;;;;;;;;19.40;99.90;;;;;;4991457;28;19916;-69
2021/09/16 12:17:00;;;;;;;;;;;19.20;99.90;;;;;;4996298;28;19905;-69
2021/09/16 12:19:25;;;;;;;;;;;19.30;99.90;;;;;;4992031;28;20000;-69
2021/09/16 12:21:52;;;;;;;;;;;19.20;99.90;;;;;;4995890;28;20584;-69
2021/09/16 12:24:18;;;;;;;;;;;19.10;99.90;;;;;;4986508;28;19910;-69
2021/09/16 12:26:50;;;;;;;;;;;19.20;99.90;;;;;;5003319;28;19906;-69
2021/09/16 12:29:25;;;;;;;;;;;19.50;99.90;;;;;;4993414;28;20333;-69
2021/09/16 12:31:54;;;;;;;;;;;19.70;99.90;;;;;;4989545;28;20002;-69
2021/09/16 12:34:19;;;;;;;;;;;19.90;99.90;;;;;;4998432;28;19979;-69
2021/09/16 12:37:08;;;;;;;;;;;19.80;99.90;;;;;;4990469;28;20346;-69
2021/09/16 12:39:44;;;;;;;;;;;19.40;99.90;;;;;;4985014;28;19905;-69
2021/09/16 12:42:14;;;;;;;;;;;19.20;99.90;;;;;;4990171;28;19913;-69
2021/09/16 12:44:40;;;;;;;;;;;19.00;99.90;;;;;;4994470;28;19975;-69
2021/09/16 12:47:06;;;;;;;;;;;19.00;99.90;;;;;;4979059;28;19959;-69
2021/09/16 12:49:36;;;;;;;;;;;19.10;99.90;;;;;;4994259;28;19993;-69
2021/09/16 12:52:12;;;;;;;;;;;19.20;99.90;;;;;;4990119;28;19916;-69
2021/09/16 12:54:45;;;;;;;;;;;19.20;99.90;;;;;;5006132;28;19905;-69
2021/09/16 12:57:11;;;;;;;;;;;19.50;99.90;;;;;;4992464;28;19906;-69
2021/09/16 12:59:36;;;;;;;;;;;20.60;99.90;;;;;;4976633;28;20250;-69
2021/09/16 13:02:06;;;;;;;;;;;20.60;99.90;;;;;;4988143;28;19918;-69
2021/09/16 13:04:48;;;;;;;;;;;20.50;99.90;;;;;;5000921;28;19909;-69
2021/09/16 13:07:13;;;;;;;;;;;19.90;99.90;;;;;;5011759;28;19912;-69
2021/09/16 13:09:39;;;;;;;;;;;19.60;99.90;;;;;;4992906;28;19914;-69
2021/09/16 13:12:11;;;;;;;;;;;19.50;99.90;;;;;;5003059;28;19905;-70
2021/09/16 13:14:37;;;;;;;;;;;19.80;99.90;;;;;;4996080;28;19905;-69
2021/09/16 13:17:02;;;;;;;;;;;21.00;99.90;;;;;;5001003;28;19905;-69
2021/09/16 13:19:28;;;;;;;;;;;21.90;99.90;;;;;;5002282;28;20004;-69
2021/09/16 13:21:53;;;;;;;;;;;22.10;99.90;;;;;;5001121;28;20299;-69
2021/09/16 13:24:19;;;;;;;;;;;21.10;99.90;;;;;;5005764;28;19913;-69
2021/09/16 13:26:45;;;;;;;;;;;20.70;99.90;;;;;;4997214;28;19909;-69
2021/09/16 13:29:10;;;;;;;;;;;20.90;99.90;;;;;;5003022;28;19947;-69
2021/09/16 13:31:36;;;;;;;;;;;20.60;99.90;;;;;;4999145;28;20041;-69
2021/09/16 13:34:02;;;;;;;;;;;20.80;99.90;;;;;;5004888;28;19964;-69
2021/09/16 13:36:27;;;;;;;;;;;21.80;99.90;;;;;;4983088;28;19913;-69
2021/09/16 13:38:53;;;;;;;;;;;22.00;99.90;;;;;;5007118;28;19912;-69
2021/09/16 13:41:18;;;;;;;;;;;21.80;99.90;;;;;;4994082;28;20266;-69
2021/09/16 13:43:44;;;;;;;;;;;21.70;99.90;;;;;;4999404;28;19913;-69
2021/09/16 13:46:09;;;;;;;;;;;21.40;99.90;;;;;;4994092;28;20066;-69
2021/09/16 13:48:35;;;;;;;;;;;21.60;99.90;;;;;;4990756;28;19913;-69
2021/09/16 13:51:00;;;;;;;;;;;23.00;99.90;;;;;;4987758;28;19909;-69
2021/09/16 13:53:26;;;;;;;;;;;22.20;99.90;;;;;;5001982;28;19905;-69
2021/09/16 13:55:52;;;;;;;;;;;21.20;99.90;;;;;;4997770;28;20361;-69
2021/09/16 13:58:17;;;;;;;;;;;20.80;99.90;;;;;;4998446;28;20332;-69
2021/09/16 14:00:43;;;;;;;;;;;20.40;99.90;;;;;;4994222;28;19910;-69
2021/09/16 14:03:08;;;;;;;;;;;20.20;99.90;;;;;;5001845;28;19913;-69
2021/09/16 14:05:34;;;;;;;;;;;19.90;99.90;;;;;;5000397;28;19913;-69
2021/09/16 14:07:59;;;;;;;;;;;19.70;99.90;;;;;;4983115;28;20397;-70
2021/09/16 14:10:25;;;;;;;;;;;19.70;99.90;;;;;;5005430;28;20384;-69
2021/09/16 14:12:50;;;;;;;;;;;19.70;99.90;;;;;;4980072;28;19949;-69
2021/09/16 14:15:16;;;;;;;;;;;19.60;99.90;;;;;;4995501;28;20586;-69